Terminal Aerodrome Forecast
Issued by NWS

Home | Current Version | Previous Version | Text Only | Print | Product List | Glossary Off
Versions: 1 2 3 4 5 6 7 8 9 10 11 12 13 14 15 16 17 18 19 20 21 22 23 24 25 26 27 28 29 30 31 32

857
FTUS43 KLOT 220327 AAB
TAFMDW
TAF AMD
KMDW 220327Z 2203/2224 29005KT P6SM FEW250
     FM220445 30005KT 4SM BR BCFG OVC005
      TEMPO 2205/2207 30007KT 1/2SM FG VV002
     FM220700 03003KT 1SM BR OVC004
     FM221700 03007KT 3SM BR OVC006
     FM221900 01010KT P6SM OVC015=

USA.gov is the U.S. government's official web portal to all federal, state and local government web resources and services.